createdAt,value
2023-05-15T00:01:56.850Z,14.42
2023-05-15T00:04:23.918Z,14.40
2023-05-15T00:06:51.280Z,14.39
2023-05-15T00:09:18.095Z,14.38
2023-05-15T00:11:44.866Z,14.38
2023-05-15T00:14:11.659Z,14.38
2023-05-15T00:16:38.460Z,14.38
2023-05-15T00:19:05.372Z,14.38
2023-05-15T00:21:32.293Z,14.38
2023-05-15T00:23:59.138Z,14.38
2023-05-15T00:26:26.309Z,14.39
2023-05-15T00:28:53.224Z,14.39
2023-05-15T00:31:20.046Z,14.39
2023-05-15T00:33:47.542Z,14.39
2023-05-15T00:36:14.411Z,14.39
2023-05-15T00:38:41.391Z,14.40
2023-05-15T00:41:08.197Z,14.40
2023-05-15T00:43:36.462Z,14.40
2023-05-15T00:46:03.300Z,14.40
2023-05-15T00:48:30.430Z,14.40
2023-05-15T00:50:57.811Z,14.41
2023-05-15T00:53:24.786Z,14.41
2023-05-15T00:55:51.720Z,14.42
2023-05-15T00:58:18.767Z,14.42
2023-05-15T01:00:45.727Z,14.42
2023-05-15T01:03:12.578Z,14.42
2023-05-15T01:05:39.459Z,14.41
2023-05-15T01:08:34.125Z,14.42
2023-05-15T01:11:00.991Z,14.41
2023-05-15T01:13:27.734Z,14.40
2023-05-15T01:15:55.074Z,14.39
2023-05-15T01:18:22.167Z,14.39
2023-05-15T01:21:01.340Z,14.38
2023-05-15T01:23:50.253Z,14.36
2023-05-15T01:26:23.241Z,14.35
2023-05-15T01:28:55.264Z,14.33
2023-05-15T01:31:22.628Z,14.30
2023-05-15T01:33:51.716Z,14.29
2023-05-15T01:36:41.807Z,14.26
2023-05-15T01:39:08.615Z,14.23
2023-05-15T01:41:40.254Z,14.20
2023-05-15T01:44:07.684Z,14.17
2023-05-15T01:46:39.652Z,14.12
2023-05-15T01:49:06.528Z,14.07
2023-05-15T01:51:33.411Z,14.02
2023-05-15T01:54:00.360Z,13.98
2023-05-15T01:56:27.226Z,13.93
2023-05-15T01:58:54.157Z,13.88
2023-05-15T02:01:21.096Z,13.85
2023-05-15T02:03:48.315Z,13.81
2023-05-15T02:06:15.092Z,13.78
2023-05-15T02:08:42.037Z,13.74
2023-05-15T02:11:08.979Z,13.71
2023-05-15T02:13:36.350Z,13.67
2023-05-15T02:16:03.326Z,13.62
2023-05-15T02:18:30.316Z,13.57
2023-05-15T02:20:58.076Z,13.53
2023-05-15T02:23:24.930Z,13.50
2023-05-15T02:26:21.485Z,13.46
2023-05-15T02:28:54.728Z,13.42
2023-05-15T02:31:34.180Z,13.39
2023-05-15T02:34:29.321Z,13.37
2023-05-15T02:36:56.253Z,13.35
2023-05-15T02:39:25.059Z,13.33
2023-05-15T02:41:52.514Z,13.32
2023-05-15T02:44:20.374Z,13.33
2023-05-15T02:46:47.960Z,13.34
2023-05-15T02:49:15.070Z,13.35
2023-05-15T02:51:42.035Z,13.36
2023-05-15T02:54:09.723Z,13.36
2023-05-15T02:56:36.737Z,13.36
2023-05-15T02:59:03.690Z,13.37
2023-05-15T03:01:30.489Z,13.43
2023-05-15T03:03:57.287Z,13.53
2023-05-15T03:06:24.219Z,13.59
2023-05-15T03:08:51.049Z,13.58
2023-05-15T03:11:19.322Z,13.56
2023-05-15T03:13:46.257Z,13.53
2023-05-15T03:16:12.981Z,13.51
2023-05-15T03:18:40.172Z,13.49
2023-05-15T03:21:07.098Z,13.46
2023-05-15T03:23:35.282Z,13.44
2023-05-15T03:26:04.058Z,13.44
2023-05-15T03:28:30.973Z,13.43
2023-05-15T03:30:57.881Z,13.42
2023-05-15T03:33:25.439Z,13.42
2023-05-15T03:35:52.898Z,13.43
2023-05-15T03:38:20.148Z,13.45
2023-05-15T03:40:48.423Z,13.48
2023-05-15T03:43:17.253Z,13.51
2023-05-15T03:45:44.076Z,13.54
2023-05-15T03:48:10.947Z,13.56
2023-05-15T03:50:39.260Z,13.61
2023-05-15T03:53:06.138Z,13.65
2023-05-15T03:55:32.862Z,13.67
2023-05-15T03:57:59.710Z,13.68
2023-05-15T04:00:27.751Z,13.69
2023-05-15T04:02:54.745Z,13.70
2023-05-15T04:05:21.961Z,13.75
2023-05-15T04:07:49.093Z,13.84
2023-05-15T04:10:15.928Z,13.92
2023-05-15T04:12:42.858Z,13.97
2023-05-15T04:15:16.984Z,14.02
2023-05-15T04:17:44.800Z,14.08
2023-05-15T04:20:13.140Z,14.16
2023-05-15T04:22:39.988Z,14.36
2023-05-15T04:25:08.062Z,14.77
2023-05-15T04:27:36.258Z,15.26
2023-05-15T04:30:04.053Z,15.79
2023-05-15T04:32:31.108Z,16.49
2023-05-15T04:34:57.918Z,17.30
2023-05-15T04:37:24.824Z,18.09
2023-05-15T04:39:51.658Z,18.80
2023-05-15T04:42:18.404Z,19.47
2023-05-15T04:44:45.170Z,20.05
2023-05-15T04:47:12.773Z,20.58
2023-05-15T04:49:41.067Z,21.02
2023-05-15T04:52:08.020Z,21.47
2023-05-15T04:54:35.082Z,21.84
2023-05-15T04:57:02.136Z,22.08
2023-05-15T04:59:29.035Z,22.13
2023-05-15T05:01:56.056Z,22.06
2023-05-15T05:04:23.397Z,21.86
2023-05-15T05:06:50.435Z,21.48
2023-05-15T05:09:19.022Z,21.07
2023-05-15T05:11:46.569Z,20.67
2023-05-15T05:14:14.511Z,20.37
2023-05-15T05:16:41.969Z,20.06
2023-05-15T05:19:08.705Z,19.79
2023-05-15T05:21:35.757Z,19.53
2023-05-15T05:24:02.725Z,19.26
2023-05-15T05:26:29.575Z,19.01
2023-05-15T05:28:56.698Z,18.81
2023-05-15T05:31:24.554Z,18.63
2023-05-15T05:33:52.748Z,18.47
2023-05-15T05:36:19.807Z,18.31
2023-05-15T05:38:46.912Z,18.21
2023-05-15T05:41:13.779Z,18.12
2023-05-15T05:43:40.506Z,18.05
2023-05-15T05:46:07.344Z,18.02
2023-05-15T05:48:34.215Z,18.03
2023-05-15T05:51:01.082Z,18.08
2023-05-15T05:53:27.996Z,18.15
2023-05-15T05:55:54.767Z,18.25
2023-05-15T05:58:25.487Z,18.34
2023-05-15T06:00:53.176Z,18.42
2023-05-15T06:03:20.739Z,18.44
2023-05-15T06:05:48.704Z,18.37
2023-05-15T06:08:15.835Z,18.31
2023-05-15T06:10:45.841Z,18.26
2023-05-15T06:13:14.857Z,18.21
2023-05-15T06:15:42.183Z,18.14
2023-05-15T06:18:09.045Z,18.11
2023-05-15T06:20:36.402Z,18.10
2023-05-15T06:23:03.928Z,18.07
2023-05-15T06:25:31.407Z,18.03
2023-05-15T06:27:58.536Z,17.97
2023-05-15T06:30:25.666Z,17.89
2023-05-15T06:32:53.607Z,17.85
2023-05-15T06:35:20.991Z,17.82
2023-05-15T06:37:50.387Z,17.81
2023-05-15T06:40:17.312Z,17.80
2023-05-15T06:42:44.127Z,17.78
2023-05-15T06:45:11.453Z,17.75
2023-05-15T06:47:38.274Z,17.74
2023-05-15T06:50:05.937Z,17.73
2023-05-15T06:52:32.804Z,17.78
2023-05-15T06:54:59.637Z,17.84
2023-05-15T06:57:26.424Z,17.96
2023-05-15T06:59:53.380Z,18.09
2023-05-15T07:02:20.381Z,18.23
2023-05-15T07:04:47.150Z,18.34
2023-05-15T07:07:14.403Z,18.43
2023-05-15T07:09:41.383Z,18.52
2023-05-15T07:12:08.939Z,18.58
2023-05-15T07:14:36.059Z,18.64
2023-05-15T07:17:03.001Z,18.76
2023-05-15T07:19:30.089Z,18.89
2023-05-15T07:21:57.015Z,18.97
2023-05-15T07:24:23.837Z,19.05
2023-05-15T07:26:58.305Z,19.19
2023-05-15T07:29:25.923Z,19.32
2023-05-15T07:31:53.262Z,19.47
2023-05-15T07:34:20.146Z,19.61
2023-05-15T07:36:47.073Z,19.70
2023-05-15T07:39:13.841Z,19.74
2023-05-15T07:41:40.894Z,19.76
2023-05-15T07:44:07.772Z,19.79
2023-05-15T07:46:35.189Z,19.85
2023-05-15T07:49:02.427Z,19.90
2023-05-15T07:51:29.300Z,19.95
2023-05-15T07:53:56.216Z,19.99
2023-05-15T07:56:23.337Z,19.98
2023-05-15T07:58:50.519Z,19.96
2023-05-15T08:01:17.348Z,20.00
2023-05-15T08:03:44.362Z,20.08
2023-05-15T08:06:11.272Z,20.15
2023-05-15T08:08:38.451Z,20.18
2023-05-15T08:11:05.646Z,20.17
2023-05-15T08:13:32.449Z,20.22
2023-05-15T08:15:59.361Z,20.31
2023-05-15T08:18:26.761Z,20.40
2023-05-15T08:20:53.661Z,20.50
2023-05-15T08:23:20.500Z,20.59
2023-05-15T08:25:47.297Z,20.73
2023-05-15T08:28:14.255Z,20.85
2023-05-15T08:30:41.252Z,20.92
2023-05-15T08:33:08.235Z,20.97
2023-05-15T08:35:35.399Z,21.02
2023-05-15T08:38:03.347Z,21.11
2023-05-15T08:40:38.945Z,21.26
2023-05-15T08:43:13.920Z,21.39
2023-05-15T08:45:41.578Z,21.51
2023-05-15T08:48:14.818Z,21.58
2023-05-15T08:50:41.906Z,21.67
2023-05-15T08:53:08.752Z,21.76
2023-05-15T08:55:35.602Z,21.87
2023-05-15T08:58:02.328Z,21.97
2023-05-15T09:00:29.288Z,22.12
2023-05-15T09:02:59.258Z,22.25
2023-05-15T09:05:26.302Z,22.36
2023-05-15T09:07:54.290Z,22.38
2023-05-15T09:10:21.389Z,22.40
2023-05-15T09:12:48.496Z,22.45
2023-05-15T09:18:07.258Z,22.61
2023-05-15T09:20:35.749Z,22.67
2023-05-15T09:23:03.926Z,22.70
2023-05-15T09:25:52.960Z,22.66
2023-05-15T09:28:30.360Z,22.67
2023-05-15T09:31:01.553Z,22.74
2023-05-15T09:33:31.603Z,22.81
2023-05-15T09:35:58.496Z,22.79
2023-05-15T09:38:25.318Z,22.79
2023-05-15T09:41:08.993Z,22.84
2023-05-15T09:43:36.750Z,22.94
2023-05-15T09:46:04.004Z,23.09
2023-05-15T09:48:31.057Z,23.26
2023-05-15T09:50:58.089Z,23.40
2023-05-15T09:53:24.918Z,23.50
2023-05-15T09:55:51.883Z,23.54
2023-05-15T09:58:19.172Z,23.55
2023-05-15T10:00:48.502Z,23.58
2023-05-15T10:03:18.482Z,23.56
2023-05-15T10:05:45.391Z,23.53
2023-05-15T10:08:14.246Z,23.57
2023-05-15T10:10:41.106Z,23.63
2023-05-15T10:13:09.355Z,23.69
2023-05-15T10:15:36.326Z,23.78
2023-05-15T10:18:03.581Z,23.79
2023-05-15T10:20:31.386Z,23.75
2023-05-15T10:22:59.104Z,23.74
2023-05-15T10:25:45.475Z,23.76
2023-05-15T10:28:12.472Z,23.79
2023-05-15T10:30:39.448Z,23.82
2023-05-15T10:33:07.014Z,23.84
2023-05-15T10:35:34.441Z,23.81
2023-05-15T10:38:03.441Z,23.76
2023-05-15T10:40:32.158Z,23.70
2023-05-15T10:42:59.622Z,23.62
2023-05-15T10:45:26.756Z,23.57
2023-05-15T10:47:53.365Z,23.56
2023-05-15T10:50:20.481Z,23.56
2023-05-15T10:52:52.210Z,23.58
2023-05-15T10:55:19.111Z,23.65
2023-05-15T10:57:46.701Z,23.72
2023-05-15T11:00:22.844Z,23.75
2023-05-15T11:02:52.957Z,23.71
2023-05-15T11:05:19.791Z,23.64
2023-05-15T11:08:25.641Z,23.65
2023-05-15T11:10:53.399Z,23.73
2023-05-15T11:13:20.764Z,23.79
2023-05-15T11:15:47.803Z,23.80
2023-05-15T11:18:14.879Z,23.86
2023-05-15T11:20:51.434Z,23.94
2023-05-15T11:23:21.534Z,24.04
2023-05-15T11:25:58.085Z,24.11
2023-05-15T11:28:25.355Z,24.19
2023-05-15T11:30:52.376Z,24.25
2023-05-15T11:33:19.623Z,24.31
2023-05-15T11:35:47.091Z,24.38
2023-05-15T11:38:14.516Z,24.46
2023-05-15T11:40:58.066Z,24.52
2023-05-15T11:43:32.133Z,24.53
2023-05-15T11:46:06.794Z,24.56
2023-05-15T11:48:38.944Z,24.59
2023-05-15T11:51:07.724Z,24.64
2023-05-15T11:53:34.565Z,24.69
2023-05-15T11:56:01.609Z,24.70
2023-05-15T11:58:29.253Z,24.73
2023-05-15T12:00:56.962Z,24.75
2023-05-15T12:03:25.357Z,24.75
2023-05-15T12:05:59.063Z,24.75
2023-05-15T12:08:33.687Z,24.75
2023-05-15T12:11:01.348Z,24.74
2023-05-15T12:13:30.005Z,24.71
2023-05-15T12:15:57.108Z,24.65
2023-05-15T12:18:24.130Z,24.60
2023-05-15T12:20:52.015Z,24.58
2023-05-15T12:23:21.915Z,24.54
2023-05-15T12:25:49.187Z,24.49
2023-05-15T12:28:16.547Z,24.43
2023-05-15T12:30:43.344Z,24.37
2023-05-15T12:33:10.203Z,24.38
2023-05-15T12:35:41.093Z,24.42
2023-05-15T12:38:07.885Z,24.41
2023-05-15T12:40:35.853Z,24.35
2023-05-15T12:43:06.367Z,24.26
2023-05-15T12:45:34.679Z,24.19
2023-05-15T12:48:01.690Z,24.13
2023-05-15T12:50:32.116Z,24.06
2023-05-15T12:53:01.819Z,24.04
2023-05-15T12:55:32.877Z,24.06
2023-05-15T12:58:10.474Z,24.04
2023-05-15T13:00:38.879Z,24.04
2023-05-15T13:03:07.726Z,24.04
2023-05-15T13:05:35.142Z,24.02
2023-05-15T13:08:04.396Z,23.98
2023-05-15T13:10:32.036Z,23.92
2023-05-15T13:12:59.150Z,23.88
2023-05-15T13:15:37.130Z,23.82
2023-05-15T13:18:08.487Z,23.75
2023-05-15T13:20:38.553Z,23.65
2023-05-15T13:23:05.540Z,23.59
2023-05-15T13:25:32.997Z,23.54
2023-05-15T13:28:00.699Z,23.48
2023-05-15T13:30:28.012Z,23.40
2023-05-15T13:32:55.962Z,23.28
2023-05-15T13:35:23.092Z,23.12
2023-05-15T13:37:49.876Z,22.94
2023-05-15T13:40:16.628Z,22.77
2023-05-15T13:42:43.974Z,22.60
2023-05-15T13:45:12.680Z,22.43
2023-05-15T13:47:40.035Z,22.30
2023-05-15T13:50:08.222Z,22.18
2023-05-15T13:52:35.566Z,22.06
2023-05-15T13:55:03.772Z,21.95
2023-05-15T13:57:31.449Z,21.85
2023-05-15T13:59:58.455Z,21.76
2023-05-15T14:02:26.457Z,21.67
2023-05-15T14:04:53.502Z,21.59
2023-05-15T14:07:23.476Z,21.54
2023-05-15T14:09:50.943Z,21.49
2023-05-15T14:12:18.131Z,21.48
2023-05-15T14:14:45.432Z,21.46
2023-05-15T14:17:12.905Z,21.40
2023-05-15T14:19:41.356Z,21.36
2023-05-15T14:22:08.775Z,21.32
2023-05-15T14:24:35.753Z,21.28
2023-05-15T14:27:05.751Z,21.26
2023-05-15T14:29:32.548Z,21.24
2023-05-15T14:31:59.692Z,21.21
2023-05-15T14:34:26.484Z,21.17
2023-05-15T14:36:53.162Z,21.13
2023-05-15T14:39:20.015Z,21.11
2023-05-15T14:41:47.167Z,21.10
2023-05-15T14:44:13.919Z,21.09
2023-05-15T14:46:41.665Z,21.06
2023-05-15T14:49:08.540Z,21.05
2023-05-15T14:51:35.571Z,21.01
2023-05-15T14:54:04.222Z,20.99
2023-05-15T14:56:31.440Z,20.96
2023-05-15T14:58:58.297Z,20.93
2023-05-15T15:01:25.215Z,20.90
2023-05-15T15:03:52.406Z,20.84
2023-05-15T15:06:19.960Z,20.80
2023-05-15T15:08:46.805Z,20.73
2023-05-15T15:11:14.112Z,20.68
2023-05-15T15:21:25.426Z,20.55
2023-05-15T15:23:52.447Z,20.49
2023-05-15T15:26:19.296Z,20.43
2023-05-15T15:28:46.250Z,20.37
2023-05-15T15:31:12.985Z,20.32
2023-05-15T15:33:40.045Z,20.29
2023-05-15T15:36:06.882Z,20.26
2023-05-15T15:38:34.670Z,20.23
2023-05-15T15:41:03.325Z,20.22
2023-05-15T15:43:30.080Z,20.23
2023-05-15T15:45:56.925Z,20.22
2023-05-15T15:48:23.968Z,20.20
2023-05-15T15:50:52.146Z,20.19
2023-05-15T15:53:19.041Z,20.17
2023-05-15T15:55:47.164Z,20.14
2023-05-15T15:58:14.739Z,20.10
2023-05-15T16:00:41.592Z,20.07
2023-05-15T16:03:08.521Z,20.04
2023-05-15T16:05:35.667Z,20.00
2023-05-15T16:08:02.488Z,19.97
2023-05-15T16:10:29.417Z,19.94
2023-05-15T16:12:56.930Z,19.90
2023-05-15T16:15:24.331Z,19.86
2023-05-15T16:17:52.902Z,19.83
2023-05-15T16:20:20.494Z,19.81
2023-05-15T16:22:47.359Z,19.76
2023-05-15T16:25:14.144Z,19.73
2023-05-15T16:27:40.978Z,19.69
2023-05-15T16:30:09.402Z,19.66
2023-05-15T16:32:36.364Z,19.61
2023-05-15T16:35:04.017Z,19.56
2023-05-15T16:37:30.797Z,19.50
2023-05-15T16:39:57.669Z,19.44
2023-05-15T16:42:25.272Z,19.37
2023-05-15T16:44:51.982Z,19.31
2023-05-15T16:47:18.706Z,19.27
2023-05-15T16:49:47.606Z,19.22
2023-05-15T16:52:16.186Z,19.18
2023-05-15T16:54:43.086Z,19.14
2023-05-15T16:57:10.075Z,19.10
2023-05-15T16:59:37.138Z,19.06
2023-05-15T17:02:04.157Z,19.02
2023-05-15T17:04:34.936Z,18.99
2023-05-15T17:07:01.688Z,18.94
2023-05-15T17:09:28.495Z,18.90
2023-05-15T17:11:55.274Z,18.86
2023-05-15T17:14:22.686Z,18.81
2023-05-15T17:16:49.457Z,18.77
2023-05-15T17:19:16.574Z,18.73
2023-05-15T17:21:44.804Z,18.69
2023-05-15T17:24:11.694Z,18.65
2023-05-15T17:26:38.480Z,18.61
2023-05-15T17:29:05.498Z,18.57
2023-05-15T17:31:34.473Z,18.54
2023-05-15T17:34:01.355Z,18.49
2023-05-15T17:36:28.186Z,18.46
2023-05-15T17:38:55.092Z,18.41
2023-05-15T17:41:22.175Z,18.37
2023-05-15T17:43:49.443Z,18.33
2023-05-15T17:46:16.367Z,18.28
2023-05-15T17:48:43.395Z,18.23
2023-05-15T17:51:10.435Z,18.19
2023-05-15T17:53:37.412Z,18.13
2023-05-15T17:56:04.411Z,18.09
2023-05-15T17:58:31.377Z,18.05
2023-05-15T18:00:58.278Z,18.01
2023-05-15T18:03:25.226Z,17.99
2023-05-15T18:05:52.737Z,17.95
2023-05-15T18:08:19.481Z,17.92
2023-05-15T18:10:46.601Z,17.89
2023-05-15T18:13:13.408Z,17.86
2023-05-15T18:15:40.306Z,17.83
2023-05-15T18:18:07.134Z,17.80
2023-05-15T18:20:34.042Z,17.78
2023-05-15T18:23:01.104Z,17.72
2023-05-15T18:25:28.025Z,17.66
2023-05-15T18:27:55.919Z,17.62
2023-05-15T18:30:22.903Z,17.58
2023-05-15T18:32:49.697Z,17.55
2023-05-15T18:35:17.193Z,17.51
2023-05-15T18:37:43.980Z,17.50
2023-05-15T18:40:11.274Z,17.47
2023-05-15T18:42:38.376Z,17.45
2023-05-15T18:45:06.511Z,17.43
2023-05-15T18:47:33.331Z,17.41
2023-05-15T18:50:00.502Z,17.38
2023-05-15T18:52:27.351Z,17.35
2023-05-15T18:54:54.370Z,17.31
2023-05-15T18:57:21.137Z,17.23
2023-05-15T18:59:48.193Z,17.17
2023-05-15T19:02:15.138Z,17.10
2023-05-15T19:04:42.067Z,17.06
2023-05-15T19:07:08.798Z,17.00
2023-05-15T19:09:35.592Z,16.93
2023-05-15T19:12:02.789Z,16.86
2023-05-15T19:14:29.590Z,16.81
2023-05-15T19:16:56.522Z,16.78
2023-05-15T19:19:23.587Z,16.76
2023-05-15T19:21:52.005Z,16.74
2023-05-15T19:24:19.639Z,16.71
2023-05-15T19:26:47.334Z,16.70
2023-05-15T19:29:14.136Z,16.70
2023-05-15T19:31:41.351Z,16.71
2023-05-15T19:34:08.382Z,16.70
2023-05-15T19:36:35.256Z,16.69
2023-05-15T19:39:02.156Z,16.66
2023-05-15T19:41:29.046Z,16.64
2023-05-15T19:43:55.919Z,16.63
2023-05-15T19:46:23.014Z,16.61
2023-05-15T19:48:49.980Z,16.62
2023-05-15T19:51:16.758Z,16.63
2023-05-15T19:53:43.800Z,16.62
2023-05-15T19:56:10.578Z,16.62
2023-05-15T19:58:37.448Z,16.60
2023-05-15T20:01:04.309Z,16.59
2023-05-15T20:03:33.424Z,16.58
2023-05-15T20:06:03.730Z,16.59
2023-05-15T20:08:30.851Z,16.60
2023-05-15T20:10:57.701Z,16.62
2023-05-15T20:13:24.698Z,16.64
2023-05-15T20:15:56.866Z,16.64
2023-05-15T20:18:25.062Z,16.64
2023-05-15T20:20:53.037Z,16.65
2023-05-15T20:23:20.790Z,16.65
2023-05-15T20:25:48.676Z,16.65
2023-05-15T20:28:15.636Z,16.65
2023-05-15T20:30:42.646Z,16.65
2023-05-15T20:33:09.558Z,16.64
2023-05-15T20:35:37.357Z,16.64
2023-05-15T20:38:04.671Z,16.62
2023-05-15T20:40:31.596Z,16.59
2023-05-15T20:42:59.316Z,16.54
2023-05-15T20:45:26.243Z,16.47
2023-05-15T20:47:53.082Z,16.40
2023-05-15T20:50:20.045Z,16.32
2023-05-15T21:35:10.390Z,15.46
2023-05-15T21:37:37.262Z,15.41
2023-05-15T21:40:05.071Z,15.39
2023-05-15T21:42:32.261Z,15.37
2023-05-15T21:44:59.348Z,15.36
2023-05-15T21:47:26.168Z,15.34
2023-05-15T21:49:52.941Z,15.33
2023-05-15T21:52:19.751Z,15.31
2023-05-15T21:54:46.553Z,15.28
2023-05-15T21:57:13.441Z,15.26
2023-05-15T21:59:40.265Z,15.23
2023-05-15T22:02:07.501Z,15.21
2023-05-15T22:04:34.563Z,15.19
2023-05-15T22:07:01.555Z,15.19
2023-05-15T22:09:28.446Z,15.20
2023-05-15T22:11:55.162Z,15.20
2023-05-15T22:14:21.946Z,15.20
2023-05-15T22:16:48.820Z,15.19
2023-05-15T22:19:31.619Z,15.18
2023-05-15T22:22:00.921Z,15.16
2023-05-15T22:24:27.710Z,15.12
2023-05-15T22:26:54.526Z,15.08
2023-05-15T22:29:22.109Z,15.02
2023-05-15T22:31:49.152Z,14.99
2023-05-15T22:34:16.184Z,14.97
2023-05-15T22:36:44.137Z,14.92
2023-05-15T22:39:11.627Z,14.89
2023-05-15T22:41:38.384Z,14.87
2023-05-15T22:44:05.268Z,14.83
2023-05-15T22:46:32.000Z,14.80
2023-05-15T22:49:04.304Z,14.76
2023-05-15T22:51:31.482Z,14.74
2023-05-15T22:53:58.247Z,14.73
2023-05-15T22:56:24.934Z,14.72
2023-05-15T22:58:53.033Z,14.69
2023-05-15T23:01:19.840Z,14.65
2023-05-15T23:03:46.847Z,14.60
2023-05-15T23:06:17.894Z,14.55
2023-05-15T23:08:45.097Z,14.47
2023-05-15T23:11:11.853Z,14.38
2023-05-15T23:13:38.765Z,14.30
2023-05-15T23:16:06.130Z,14.24
2023-05-15T23:18:32.990Z,14.19
2023-05-15T23:20:59.799Z,14.17
2023-05-15T23:23:26.653Z,14.19
2023-05-15T23:25:53.725Z,14.20
2023-05-15T23:28:21.336Z,14.21
2023-05-15T23:30:48.361Z,14.21
2023-05-15T23:33:15.411Z,14.21
2023-05-15T23:35:43.325Z,14.22
2023-05-15T23:38:10.605Z,14.22
2023-05-15T23:40:37.411Z,14.23
2023-05-15T23:43:04.167Z,14.25
2023-05-15T23:45:30.973Z,14.28
2023-05-15T23:47:57.784Z,14.31
2023-05-15T23:50:24.796Z,14.35
2023-05-15T23:52:51.722Z,14.39
2023-05-15T23:55:18.690Z,14.41
2023-05-15T23:57:46.950Z,14.43
